createdAt,value
2022-12-11T00:00:59.280Z,101143.84
2022-12-11T00:03:29.642Z,101137.81
2022-12-11T00:05:59.692Z,101143.53
2022-12-11T00:08:29.626Z,101145.69
2022-12-11T00:10:59.664Z,101151.09
2022-12-11T11:56:13.840Z,100964.63
2022-12-11T11:58:52.630Z,100967.28
2022-12-11T12:01:23.723Z,100972.13
2022-12-11T12:03:55.351Z,100972.22
2022-12-11T12:06:36.974Z,100982.34
2022-12-11T12:09:25.692Z,100986.28
2022-12-11T12:12:28.593Z,100990.34
2022-12-11T12:15:22.528Z,100996.38
2022-12-11T12:18:14.477Z,101000.94
2022-12-11T12:21:08.797Z,101010.22
2022-12-11T12:23:41.917Z,101011.66
2022-12-11T12:26:24.356Z,101017.00
2022-12-11T12:29:12.761Z,101019.66
2022-12-11T12:32:16.318Z,101025.78
2022-12-11T12:35:04.245Z,101026.47
2022-12-11T12:37:57.499Z,101028.72
2022-12-11T12:40:42.151Z,101039.78
2022-12-11T12:43:26.979Z,101039.16
2022-12-11T12:46:07.906Z,101043.88
2022-12-11T12:48:38.803Z,101050.69
2022-12-11T12:51:09.483Z,101055.00
2022-12-11T12:53:40.160Z,101061.25
2022-12-11T12:56:11.231Z,101059.44
2022-12-11T12:58:48.312Z,101070.47
2022-12-11T13:01:23.062Z,101075.19
2022-12-11T13:03:55.966Z,101077.41
2022-12-11T13:06:45.770Z,101086.50
2022-12-11T13:09:20.212Z,101084.41
2022-12-11T13:11:55.734Z,101089.09
2022-12-11T13:14:30.933Z,101084.69
2022-12-11T13:17:28.840Z,101090.72
2022-12-11T13:20:16.857Z,101088.28
2022-12-11T13:23:19.156Z,101092.97
2022-12-11T13:25:56.069Z,101096.56
2022-12-11T13:28:50.355Z,101096.25
2022-12-11T13:31:20.508Z,101102.59
2022-12-11T13:33:58.218Z,101102.59
2022-12-11T13:36:40.615Z,101110.03
2022-12-11T13:39:49.093Z,101114.75
2022-12-11T13:42:49.266Z,101101.75
2022-12-11T13:45:46.785Z,101102.09
2022-12-11T13:48:34.559Z,101112.81
2022-12-11T13:51:05.640Z,101110.53
2022-12-11T13:53:35.988Z,101105.84
2022-12-11T13:56:16.739Z,101109.72
2022-12-11T13:58:47.159Z,101103.41
2022-12-11T14:01:25.146Z,101112.28
2022-12-11T14:04:10.519Z,101116.97
2022-12-11T14:06:42.385Z,101117.63
2022-12-11T14:09:18.786Z,101118.31
2022-12-11T14:11:55.094Z,101106.88
2022-12-11T14:14:42.832Z,101117.38
2022-12-11T14:17:17.537Z,101118.06
2022-12-11T14:19:51.493Z,101126.22
2022-12-11T14:22:28.360Z,101120.03
2022-12-11T14:25:01.013Z,101119.41
2022-12-11T14:27:31.793Z,101117.59
2022-12-11T14:30:14.096Z,101115.34
2022-12-11T14:32:47.483Z,101111.28
2022-12-11T14:35:41.080Z,101110.00
2022-12-11T14:38:22.368Z,101103.00
2022-12-11T14:40:57.936Z,101110.34
2022-12-11T14:43:39.648Z,101107.69
2022-12-11T14:46:18.889Z,101110.78
2022-12-11T14:49:00.561Z,101108.69
2022-12-11T14:51:37.488Z,101119.06
2022-12-11T14:54:10.354Z,101114.53
2022-12-11T14:56:40.819Z,101117.59
2022-12-11T14:59:29.987Z,101114.84
2022-12-11T15:02:23.336Z,101124.16
2022-12-11T15:05:22.569Z,101125.91
2022-12-11T15:08:04.920Z,101130.47
2022-12-11T15:10:40.140Z,101126.28
2022-12-11T15:13:11.451Z,101125.38
2022-12-11T15:15:50.830Z,101122.50
2022-12-11T15:18:36.376Z,101119.75
2022-12-11T15:21:11.662Z,101124.75
2022-12-11T15:24:02.851Z,101120.31
2022-12-11T15:26:39.995Z,101114.22
2022-12-11T15:29:29.297Z,101125.41
2022-12-11T15:32:05.277Z,101117.41
2022-12-11T15:34:46.555Z,101116.06
2022-12-11T15:37:20.233Z,101121.09
2022-12-11T15:39:50.806Z,101112.81
2022-12-11T15:42:29.318Z,101108.41
2022-12-11T15:45:00.174Z,101101.75
2022-12-11T15:47:33.633Z,101094.09
2022-12-11T15:50:15.166Z,101097.69
2022-12-11T15:52:46.547Z,101092.97
2022-12-11T15:55:17.264Z,101086.59
2022-12-11T15:57:57.479Z,101093.53
2022-12-11T16:00:30.429Z,101091.25
2022-12-11T16:03:00.964Z,101094.72
2022-12-11T16:05:31.198Z,101092.75
2022-12-11T16:08:01.754Z,101090.63
2022-12-11T16:10:32.166Z,101086.72
2022-12-11T16:13:02.423Z,101090.94
2022-12-11T16:15:32.787Z,101090.94
2022-12-11T16:18:18.572Z,101081.03
2022-12-11T16:20:49.965Z,101077.94
2022-12-11T16:23:20.286Z,101085.94
2022-12-11T16:25:51.307Z,101072.75
2022-12-11T16:28:23.496Z,101076.97
2022-12-11T16:30:54.020Z,101069.97
2022-12-11T16:33:24.134Z,101069.81
2022-12-11T16:35:54.462Z,101073.53
2022-12-11T16:38:25.099Z,101073.53
2022-12-11T16:41:04.756Z,101070.41
2022-12-11T16:43:35.664Z,101069.84
2022-12-11T16:46:05.940Z,101063.94
2022-12-11T16:48:36.255Z,101072.00
2022-12-11T16:51:06.433Z,101069.88
2022-12-11T16:53:36.530Z,101064.50
2022-12-11T16:56:08.727Z,101066.44
2022-12-11T16:58:38.862Z,101059.59
2022-12-11T17:01:16.424Z,101064.31
2022-12-11T17:03:47.054Z,101067.38
2022-12-11T17:06:19.770Z,101078.41
2022-12-11T17:08:50.807Z,101078.72
2022-12-11T17:11:24.411Z,101079.03
2022-12-11T17:13:59.333Z,101076.25
2022-12-11T17:16:36.054Z,101073.84
2022-12-11T17:19:09.504Z,101072.72
2022-12-11T17:21:39.955Z,101079.66
2022-12-11T17:24:12.571Z,101073.00
2022-12-11T17:26:42.768Z,101074.94
2022-12-11T17:29:14.388Z,101072.00
2022-12-11T17:31:44.566Z,101076.06
2022-12-11T17:34:14.807Z,101070.38
2022-12-11T17:36:44.807Z,101067.63
2022-12-11T17:39:15.019Z,101075.06
2022-12-11T17:41:45.156Z,101071.50
2022-12-11T17:44:15.122Z,101076.19
2022-12-11T17:46:45.361Z,101072.94
2022-12-11T17:49:15.494Z,101073.25
2022-12-11T17:51:45.430Z,101077.63
2022-12-11T17:54:15.500Z,101076.00
2022-12-11T17:56:45.737Z,101073.25
2022-12-11T17:59:16.264Z,101073.56
2022-12-11T18:01:47.194Z,101073.25
2022-12-11T18:04:17.259Z,101068.84
2022-12-11T18:06:47.247Z,101061.41
2022-12-11T18:09:17.235Z,101062.81
2022-12-11T18:11:47.241Z,101071.09
2022-12-11T18:14:17.743Z,101075.50
2022-12-11T18:16:48.463Z,101074.97
2022-12-11T18:19:19.285Z,101072.72
2022-12-11T18:21:49.666Z,101067.53
2022-12-11T18:24:19.864Z,101061.50
2022-12-11T18:26:50.898Z,101061.19
2022-12-11T18:29:21.022Z,101056.78
2022-12-11T18:31:51.043Z,101061.19
2022-12-11T18:34:21.100Z,101059.88
2022-12-11T18:36:51.123Z,101059.06
2022-12-11T18:39:21.314Z,101059.38
2022-12-11T18:42:16.477Z,101062.97
2022-12-11T18:44:41.917Z,101054.97
2022-12-11T18:47:12.310Z,101057.75
2022-12-11T18:49:42.462Z,101056.94
2022-12-11T18:52:12.661Z,101058.06
2022-12-11T18:54:43.392Z,101054.78
2022-12-11T18:57:14.129Z,101049.28
2022-12-11T18:59:44.332Z,101054.00
2022-12-11T19:02:15.041Z,101053.47
2022-12-11T19:04:45.202Z,101051.84
2022-12-11T19:07:15.272Z,101051.00
2022-12-11T19:09:48.226Z,101045.50
2022-12-11T19:12:19.936Z,101043.56
2022-12-11T19:14:50.007Z,101043.84
2022-12-11T19:17:20.017Z,101043.06
2022-12-11T19:19:50.199Z,101037.84
2022-12-11T19:22:20.694Z,101034.28
2022-12-11T19:24:50.838Z,101031.00
2022-12-11T19:27:20.877Z,101044.50
2022-12-11T19:29:50.891Z,101036.72
2022-12-11T19:32:20.939Z,101038.16
2022-12-11T19:34:50.926Z,101039.00
2022-12-11T19:37:20.967Z,101029.56
2022-12-11T19:39:51.105Z,101033.97
2022-12-11T19:42:21.587Z,101023.75
2022-12-11T19:44:51.758Z,101016.41
2022-12-11T19:47:21.794Z,101013.84
2022-12-11T19:49:53.093Z,101014.66
2022-12-11T19:52:23.242Z,101010.25
2022-12-11T19:54:53.270Z,101010.25
2022-12-11T19:57:23.473Z,101012.22
2022-12-11T19:59:57.204Z,101014.66
2022-12-11T20:02:27.797Z,101003.94
2022-12-11T20:04:58.087Z,101002.31
2022-12-11T20:07:30.846Z,101005.38
2022-12-11T20:10:02.622Z,101002.31
2022-12-11T20:12:33.009Z,101008.66
2022-12-11T20:15:03.387Z,101002.88
2022-12-11T20:17:35.448Z,101008.13
2022-12-11T20:20:06.478Z,100999.31
2022-12-11T20:22:36.900Z,101000.97
2022-12-11T20:25:07.232Z,100999.16
2022-12-11T20:27:37.526Z,100992.97
2022-12-11T20:30:09.208Z,101001.75
2022-12-11T20:32:39.503Z,100986.06
2022-12-11T20:35:10.615Z,100991.28
2022-12-11T20:37:40.597Z,100989.63
2022-12-11T20:40:11.061Z,100986.06
2022-12-11T20:42:41.584Z,100987.72
2022-12-11T20:45:12.533Z,100988.31
2022-12-11T20:47:42.906Z,100989.09
2022-12-11T20:50:13.440Z,100997.19
2022-12-11T20:52:43.622Z,100989.41
2022-12-11T20:55:14.234Z,100992.78
2022-12-11T20:57:45.400Z,100990.03
2022-12-11T21:00:16.861Z,100991.47
2022-12-11T21:02:46.605Z,100991.16
2022-12-11T21:05:16.758Z,100993.91
2022-12-11T21:07:46.899Z,100989.25
2022-12-11T21:10:17.308Z,100997.81
2022-12-11T21:12:47.670Z,100985.13
2022-12-11T21:15:17.989Z,100986.78
2022-12-11T21:17:49.509Z,100991.78
2022-12-11T21:20:19.890Z,100993.41
2022-12-11T21:22:50.068Z,100993.13
2022-12-11T21:25:20.212Z,100994.84
2022-12-11T21:27:50.513Z,101003.94
2022-12-11T21:30:20.827Z,100992.09
2022-12-11T21:32:50.906Z,100997.94
2022-12-11T21:35:20.921Z,101001.81
2022-12-11T21:37:51.249Z,100998.41
2022-12-11T21:40:21.466Z,101004.75
2022-12-11T21:42:51.588Z,101009.59
2022-12-11T21:48:11.966Z,101013.66
2022-12-11T21:50:42.641Z,101016.41
2022-12-11T21:53:12.801Z,101024.34
2022-12-11T21:55:44.668Z,101031.31
2022-12-11T21:58:14.802Z,101030.81
2022-12-11T22:00:45.083Z,101029.38
2022-12-11T22:03:15.199Z,101030.50
2022-12-11T22:05:45.172Z,101029.69
2022-12-11T22:08:15.216Z,101039.91
2022-12-11T22:10:45.235Z,101043.28
2022-12-11T22:13:15.270Z,101044.72
2022-12-11T22:15:45.294Z,101038.56
2022-12-11T22:18:15.275Z,101037.06
2022-12-11T22:20:45.366Z,101045.34
2022-12-11T22:23:15.570Z,101043.19
2022-12-11T22:25:45.715Z,101051.38
2022-12-11T22:28:16.729Z,101056.16
2022-12-11T22:30:46.947Z,101049.50
2022-12-11T22:33:18.692Z,101056.38
2022-12-11T22:35:49.274Z,101057.78
2022-12-11T22:38:19.376Z,101070.94
2022-12-11T22:40:49.341Z,101064.72
2022-12-11T22:43:20.861Z,101072.72
2022-12-11T22:45:52.060Z,101077.41
2022-12-11T22:48:22.353Z,101073.84
2022-12-11T22:50:52.460Z,101082.09
2022-12-11T22:53:22.494Z,101084.72
2022-12-11T22:55:52.628Z,101082.59
2022-12-11T22:58:22.797Z,101093.13
2022-12-11T23:00:52.946Z,101096.38
2022-12-11T23:03:23.128Z,101099.44
2022-12-11T23:05:53.340Z,101114.53
2022-12-11T23:08:24.444Z,101115.78
2022-12-11T23:10:55.184Z,101118.75
2022-12-11T23:13:25.409Z,101120.91
2022-12-11T23:15:55.592Z,101126.50
2022-12-11T23:18:25.547Z,101129.25
2022-12-11T23:20:55.827Z,101132.84
2022-12-11T23:23:26.046Z,101138.44
2022-12-11T23:25:57.779Z,101141.41
2022-12-11T23:28:28.068Z,101145.28
2022-12-11T23:30:58.397Z,101149.69
2022-12-11T23:33:29.116Z,101145.97
2022-12-11T23:36:00.968Z,101146.31
2022-12-11T23:38:31.344Z,101148.19
2022-12-11T23:41:04.053Z,101152.78
2022-12-11T23:43:36.419Z,101165.41
2022-12-11T23:46:10.054Z,101160.50
2022-12-11T23:48:40.419Z,101165.66
2022-12-11T23:51:11.434Z,101180.16
2022-12-11T23:53:41.680Z,101169.59
2022-12-11T23:56:18.949Z,101177.72
2022-12-11T23:58:49.498Z,101168.94
